sensor_id;sensor_type;location;lat;lon;timestamp;P1;durP1;ratioP1;P2;durP2;ratioP2
54197;SDS011;40105;52.366;17.000;2022-08-11T00:01:49;10.70;;;2.70;;
54197;SDS011;40105;52.366;17.000;2022-08-11T00:04:15;7.57;;;2.60;;
54197;SDS011;40105;52.366;17.000;2022-08-11T00:06:41;4.63;;;2.72;;
54197;SDS011;40105;52.366;17.000;2022-08-11T00:09:12;4.50;;;2.30;;
54197;SDS011;40105;52.366;17.000;2022-08-11T00:11:46;14.23;;;2.78;;
54197;SDS011;40105;52.366;17.000;2022-08-11T00:14:22;7.85;;;2.72;;
54197;SDS011;40105;52.366;17.000;2022-08-11T00:19:23;6.63;;;2.50;;
54197;SDS011;40105;52.366;17.000;2022-08-11T00:21:49;11.02;;;2.72;;
54197;SDS011;40105;52.366;17.000;2022-08-11T00:24:15;11.77;;;2.58;;
54197;SDS011;40105;52.366;17.000;2022-08-11T00:26:41;10.52;;;2.60;;
54197;SDS011;40105;52.366;17.000;2022-08-11T00:29:11;5.45;;;2.17;;
54197;SDS011;40105;52.366;17.000;2022-08-11T00:31:36;5.13;;;2.40;;
54197;SDS011;40105;52.366;17.000;2022-08-11T00:34:02;7.60;;;2.58;;
54197;SDS011;40105;52.366;17.000;2022-08-11T00:36:36;13.68;;;3.10;;
54197;SDS011;40105;52.366;17.000;2022-08-11T00:39:03;3.10;;;1.88;;
54197;SDS011;40105;52.366;17.000;2022-08-11T00:41:38;15.70;;;2.35;;
54197;SDS011;40105;52.366;17.000;2022-08-11T00:44:15;9.10;;;2.50;;
54197;SDS011;40105;52.366;17.000;2022-08-11T00:49:44;4.70;;;2.38;;
54197;SDS011;40105;52.366;17.000;2022-08-11T01:15:39;6.85;;;2.58;;
54197;SDS011;40105;52.366;17.000;2022-08-11T01:18:28;4.78;;;2.60;;
54197;SDS011;40105;52.366;17.000;2022-08-11T01:26:41;5.97;;;2.83;;
54197;SDS011;40105;52.366;17.000;2022-08-11T01:29:21;7.30;;;2.92;;
54197;SDS011;40105;52.366;17.000;2022-08-11T01:37:12;9.10;;;2.63;;
54197;SDS011;40105;52.366;17.000;2022-08-11T01:58:34;9.73;;;2.40;;
54197;SDS011;40105;52.366;17.000;2022-08-11T02:01:49;6.32;;;2.50;;
54197;SDS011;40105;52.366;17.000;2022-08-11T02:06:41;10.38;;;2.38;;
54197;SDS011;40105;52.366;17.000;2022-08-11T02:17:32;6.03;;;2.63;;
54197;SDS011;40105;52.366;17.000;2022-08-11T02:39:42;5.82;;;2.33;;
54197;SDS011;40105;52.366;17.000;2022-08-11T02:42:15;7.40;;;2.80;;
54197;SDS011;40105;52.366;17.000;2022-08-11T02:57:36;11.88;;;2.95;;
54197;SDS011;40105;52.366;17.000;2022-08-11T03:00:08;10.25;;;2.63;;
54197;SDS011;40105;52.366;17.000;2022-08-11T03:02:41;8.38;;;3.80;;
54197;SDS011;40105;52.366;17.000;2022-08-11T03:10:22;11.48;;;3.85;;
54197;SDS011;40105;52.366;17.000;2022-08-11T03:12:54;5.55;;;2.90;;
54197;SDS011;40105;52.366;17.000;2022-08-11T03:15:51;8.77;;;3.30;;
54197;SDS011;40105;52.366;17.000;2022-08-11T03:18:44;11.85;;;2.90;;
54197;SDS011;40105;52.366;17.000;2022-08-11T03:24:07;6.78;;;3.20;;
54197;SDS011;40105;52.366;17.000;2022-08-11T03:26:38;9.80;;;3.57;;
54197;SDS011;40105;52.366;17.000;2022-08-11T03:32:03;8.27;;;3.15;;
54197;SDS011;40105;52.366;17.000;2022-08-11T03:50:17;5.85;;;3.65;;
54197;SDS011;40105;52.366;17.000;2022-08-11T03:55:16;11.25;;;4.35;;
54197;SDS011;40105;52.366;17.000;2022-08-11T03:57:54;9.43;;;4.32;;
54197;SDS011;40105;52.366;17.000;2022-08-11T04:03:16;8.98;;;3.97;;
54197;SDS011;40105;52.366;17.000;2022-08-11T04:05:48;12.15;;;4.25;;
54197;SDS011;40105;52.366;17.000;2022-08-11T04:08:44;11.30;;;3.88;;
54197;SDS011;40105;52.366;17.000;2022-08-11T04:11:35;14.10;;;4.10;;
54197;SDS011;40105;52.366;17.000;2022-08-11T04:25:10;13.93;;;4.80;;
54197;SDS011;40105;52.366;17.000;2022-08-11T04:33:29;9.05;;;4.22;;
54197;SDS011;40105;52.366;17.000;2022-08-11T04:39:03;11.30;;;4.43;;
54197;SDS011;40105;52.366;17.000;2022-08-11T04:44:59;12.40;;;5.00;;
54197;SDS011;40105;52.366;17.000;2022-08-11T04:53:18;12.23;;;5.20;;
54197;SDS011;40105;52.366;17.000;2022-08-11T04:56:08;13.25;;;4.70;;
54197;SDS011;40105;52.366;17.000;2022-08-11T04:59:00;9.55;;;4.68;;
54197;SDS011;40105;52.366;17.000;2022-08-11T05:12:55;7.45;;;4.40;;
54197;SDS011;40105;52.366;17.000;2022-08-11T05:15:33;18.15;;;4.75;;
54197;SDS011;40105;52.366;17.000;2022-08-11T05:18:19;9.75;;;4.70;;
54197;SDS011;40105;52.366;17.000;2022-08-11T05:21:08;17.67;;;4.63;;
54197;SDS011;40105;52.366;17.000;2022-08-11T05:23:55;18.08;;;5.70;;
54197;SDS011;40105;52.366;17.000;2022-08-11T05:26:43;17.83;;;5.65;;
54197;SDS011;40105;52.366;17.000;2022-08-11T05:29:41;14.35;;;5.55;;
54197;SDS011;40105;52.366;17.000;2022-08-11T05:32:26;18.60;;;6.00;;
54197;SDS011;40105;52.366;17.000;2022-08-11T05:35:12;12.50;;;4.45;;
54197;SDS011;40105;52.366;17.000;2022-08-11T05:37:42;13.45;;;4.03;;
54197;SDS011;40105;52.366;17.000;2022-08-11T05:40:27;22.27;;;5.53;;
54197;SDS011;40105;52.366;17.000;2022-08-11T05:43:11;13.30;;;4.70;;
54197;SDS011;40105;52.366;17.000;2022-08-11T05:45:56;14.00;;;4.50;;
54197;SDS011;40105;52.366;17.000;2022-08-11T05:48:41;14.63;;;4.57;;
54197;SDS011;40105;52.366;17.000;2022-08-11T05:51:32;10.07;;;4.50;;
54197;SDS011;40105;52.366;17.000;2022-08-11T05:54:16;15.00;;;5.00;;
54197;SDS011;40105;52.366;17.000;2022-08-11T05:57:00;10.43;;;5.50;;
54197;SDS011;40105;52.366;17.000;2022-08-11T05:59:26;6.90;;;4.30;;
54197;SDS011;40105;52.366;17.000;2022-08-11T06:01:52;8.27;;;4.53;;
54197;SDS011;40105;52.366;17.000;2022-08-11T06:04:19;8.20;;;4.50;;
54197;SDS011;40105;52.366;17.000;2022-08-11T06:06:48;8.00;;;4.82;;
54197;SDS011;40105;52.366;17.000;2022-08-11T06:09:23;7.93;;;4.80;;
54197;SDS011;40105;52.366;17.000;2022-08-11T06:11:48;18.00;;;4.57;;
54197;SDS011;40105;52.366;17.000;2022-08-11T06:14:14;10.32;;;4.57;;
54197;SDS011;40105;52.366;17.000;2022-08-11T06:16:40;13.30;;;4.55;;
54197;SDS011;40105;52.366;17.000;2022-08-11T06:19:05;9.63;;;4.97;;
54197;SDS011;40105;52.366;17.000;2022-08-11T06:21:32;12.60;;;4.95;;
54197;SDS011;40105;52.366;17.000;2022-08-11T06:23:58;12.77;;;4.72;;
54197;SDS011;40105;52.366;17.000;2022-08-11T06:26:24;23.30;;;5.55;;
54197;SDS011;40105;52.366;17.000;2022-08-11T06:28:49;12.60;;;4.40;;
54197;SDS011;40105;52.366;17.000;2022-08-11T06:31:18;12.90;;;4.53;;
54197;SDS011;40105;52.366;17.000;2022-08-11T06:34:07;7.28;;;4.40;;
54197;SDS011;40105;52.366;17.000;2022-08-11T06:39:26;10.70;;;4.00;;
54197;SDS011;40105;52.366;17.000;2022-08-11T06:41:55;6.13;;;4.05;;
54197;SDS011;40105;52.366;17.000;2022-08-11T06:47:19;12.18;;;4.28;;
54197;SDS011;40105;52.366;17.000;2022-08-11T06:49:44;16.80;;;3.53;;
54197;SDS011;40105;52.366;17.000;2022-08-11T06:52:30;13.45;;;4.13;;
54197;SDS011;40105;52.366;17.000;2022-08-11T06:54:56;15.73;;;3.55;;
54197;SDS011;40105;52.366;17.000;2022-08-11T06:57:28;10.88;;;3.55;;
54197;SDS011;40105;52.366;17.000;2022-08-11T07:00:26;8.32;;;3.60;;
54197;SDS011;40105;52.366;17.000;2022-08-11T07:02:56;8.07;;;3.63;;
54197;SDS011;40105;52.366;17.000;2022-08-11T07:14:02;12.35;;;3.60;;
54197;SDS011;40105;52.366;17.000;2022-08-11T07:16:47;7.15;;;3.55;;
54197;SDS011;40105;52.366;17.000;2022-08-11T07:19:14;7.80;;;2.70;;
54197;SDS011;40105;52.366;17.000;2022-08-11T07:21:59;9.20;;;2.67;;
54197;SDS011;40105;52.366;17.000;2022-08-11T07:24:49;7.45;;;3.38;;
54197;SDS011;40105;52.366;17.000;2022-08-11T07:27:38;11.32;;;3.85;;
54197;SDS011;40105;52.366;17.000;2022-08-11T07:30:24;7.80;;;3.10;;
54197;SDS011;40105;52.366;17.000;2022-08-11T07:32:51;6.45;;;2.22;;
54197;SDS011;40105;52.366;17.000;2022-08-11T07:35:19;12.68;;;2.72;;
54197;SDS011;40105;52.366;17.000;2022-08-11T07:37:49;6.78;;;1.83;;
54197;SDS011;40105;52.366;17.000;2022-08-11T07:40:22;8.48;;;2.47;;
54197;SDS011;40105;52.366;17.000;2022-08-11T07:42:48;11.98;;;2.33;;
54197;SDS011;40105;52.366;17.000;2022-08-11T07:45:14;10.48;;;2.33;;
54197;SDS011;40105;52.366;17.000;2022-08-11T07:47:58;12.48;;;2.80;;
54197;SDS011;40105;52.366;17.000;2022-08-11T07:50:42;12.57;;;2.20;;
54197;SDS011;40105;52.366;17.000;2022-08-11T07:53:26;4.47;;;2.30;;
54197;SDS011;40105;52.366;17.000;2022-08-11T07:55:53;5.28;;;2.75;;
54197;SDS011;40105;52.366;17.000;2022-08-11T07:58:19;5.25;;;2.20;;
54197;SDS011;40105;52.366;17.000;2022-08-11T08:01:03;9.52;;;1.83;;
54197;SDS011;40105;52.366;17.000;2022-08-11T08:03:47;5.15;;;1.77;;
54197;SDS011;40105;52.366;17.000;2022-08-11T08:06:31;3.45;;;1.65;;
54197;SDS011;40105;52.366;17.000;2022-08-11T08:09:18;4.18;;;2.22;;
54197;SDS011;40105;52.366;17.000;2022-08-11T08:12:03;5.78;;;1.70;;
54197;SDS011;40105;52.366;17.000;2022-08-11T08:14:47;5.63;;;1.45;;
54197;SDS011;40105;52.366;17.000;2022-08-11T08:17:31;3.20;;;1.58;;
54197;SDS011;40105;52.366;17.000;2022-08-11T08:20:13;3.22;;;1.75;;
54197;SDS011;40105;52.366;17.000;2022-08-11T08:22:40;6.30;;;2.67;;
54197;SDS011;40105;52.366;17.000;2022-08-11T08:25:05;3.13;;;1.45;;
54197;SDS011;40105;52.366;17.000;2022-08-11T08:27:31;9.45;;;1.50;;
54197;SDS011;40105;52.366;17.000;2022-08-11T08:29:57;2.10;;;1.27;;
54197;SDS011;40105;52.366;17.000;2022-08-11T08:32:42;8.88;;;1.70;;
54197;SDS011;40105;52.366;17.000;2022-08-11T08:35:11;3.88;;;1.42;;
54197;SDS011;40105;52.366;17.000;2022-08-11T08:37:36;4.43;;;1.45;;
54197;SDS011;40105;52.366;17.000;2022-08-11T08:40:02;3.80;;;1.27;;
54197;SDS011;40105;52.366;17.000;2022-08-11T08:42:28;4.03;;;1.55;;
54197;SDS011;40105;52.366;17.000;2022-08-11T08:45:05;4.40;;;1.45;;
54197;SDS011;40105;52.366;17.000;2022-08-11T08:47:34;7.10;;;1.45;;
54197;SDS011;40105;52.366;17.000;2022-08-11T08:50:04;2.30;;;1.15;;
54197;SDS011;40105;52.366;17.000;2022-08-11T08:54:57;10.23;;;1.73;;
54197;SDS011;40105;52.366;17.000;2022-08-11T08:57:26;3.70;;;1.00;;
54197;SDS011;40105;52.366;17.000;2022-08-11T08:59:51;4.82;;;1.33;;
54197;SDS011;40105;52.366;17.000;2022-08-11T09:02:17;12.47;;;1.67;;
54197;SDS011;40105;52.366;17.000;2022-08-11T09:04:44;2.67;;;1.27;;
54197;SDS011;40105;52.366;17.000;2022-08-11T09:07:14;2.25;;;1.15;;
54197;SDS011;40105;52.366;17.000;2022-08-11T09:09:41;2.45;;;1.25;;
54197;SDS011;40105;52.366;17.000;2022-08-11T09:12:06;2.90;;;1.08;;
54197;SDS011;40105;52.366;17.000;2022-08-11T09:14:32;4.25;;;1.30;;
54197;SDS011;40105;52.366;17.000;2022-08-11T09:17:17;1.88;;;1.23;;
54197;SDS011;40105;52.366;17.000;2022-08-11T09:19:42;4.00;;;1.20;;
54197;SDS011;40105;52.366;17.000;2022-08-11T09:22:08;2.38;;;1.00;;
54197;SDS011;40105;52.366;17.000;2022-08-11T09:24:52;6.00;;;1.02;;
54197;SDS011;40105;52.366;17.000;2022-08-11T09:27:36;3.97;;;1.23;;
54197;SDS011;40105;52.366;17.000;2022-08-11T09:30:04;2.22;;;1.08;;
54197;SDS011;40105;52.366;17.000;2022-08-11T09:32:29;2.97;;;1.15;;
54197;SDS011;40105;52.366;17.000;2022-08-11T09:34:55;3.85;;;1.10;;
54197;SDS011;40105;52.366;17.000;2022-08-11T09:37:21;6.93;;;0.98;;
54197;SDS011;40105;52.366;17.000;2022-08-11T09:40:06;6.45;;;1.60;;
54197;SDS011;40105;52.366;17.000;2022-08-11T09:42:50;16.30;;;1.25;;
54197;SDS011;40105;52.366;17.000;2022-08-11T09:45:34;4.85;;;1.30;;
54197;SDS011;40105;52.366;17.000;2022-08-11T09:48:01;3.58;;;1.30;;
54197;SDS011;40105;52.366;17.000;2022-08-11T09:50:29;3.08;;;1.30;;
54197;SDS011;40105;52.366;17.000;2022-08-11T09:52:55;5.10;;;1.20;;
54197;SDS011;40105;52.366;17.000;2022-08-11T09:55:21;2.72;;;1.42;;
54197;SDS011;40105;52.366;17.000;2022-08-11T09:57:46;5.00;;;2.07;;
54197;SDS011;40105;52.366;17.000;2022-08-11T10:00:31;7.28;;;1.42;;
54197;SDS011;40105;52.366;17.000;2022-08-11T10:02:56;2.85;;;1.55;;
54197;SDS011;40105;52.366;17.000;2022-08-11T10:05:22;6.78;;;1.48;;
54197;SDS011;40105;52.366;17.000;2022-08-11T10:08:08;2.53;;;1.67;;
54197;SDS011;40105;52.366;17.000;2022-08-11T10:10:36;3.28;;;1.60;;
54197;SDS011;40105;52.366;17.000;2022-08-11T10:13:02;2.70;;;1.50;;
54197;SDS011;40105;52.366;17.000;2022-08-11T10:15:29;9.55;;;1.42;;
54197;SDS011;40105;52.366;17.000;2022-08-11T10:18:06;7.43;;;1.35;;
54197;SDS011;40105;52.366;17.000;2022-08-11T10:20:51;4.22;;;1.45;;
54197;SDS011;40105;52.366;17.000;2022-08-11T10:23:17;6.50;;;1.35;;
54197;SDS011;40105;52.366;17.000;2022-08-11T10:26:01;2.33;;;1.48;;
54197;SDS011;40105;52.366;17.000;2022-08-11T10:28:46;5.40;;;1.40;;
54197;SDS011;40105;52.366;17.000;2022-08-11T10:31:11;4.32;;;1.50;;
54197;SDS011;40105;52.366;17.000;2022-08-11T10:33:56;3.08;;;1.48;;
54197;SDS011;40105;52.366;17.000;2022-08-11T10:36:31;13.45;;;2.40;;
54197;SDS011;40105;52.366;17.000;2022-08-11T10:38:57;3.22;;;1.40;;
54197;SDS011;40105;52.366;17.000;2022-08-11T10:41:23;3.25;;;1.40;;
54197;SDS011;40105;52.366;17.000;2022-08-11T10:44:07;2.47;;;1.33;;
54197;SDS011;40105;52.366;17.000;2022-08-11T10:46:34;2.92;;;1.27;;
54197;SDS011;40105;52.366;17.000;2022-08-11T10:49:18;4.35;;;1.20;;
54197;SDS011;40105;52.366;17.000;2022-08-11T10:51:44;9.50;;;1.15;;
54197;SDS011;40105;52.366;17.000;2022-08-11T10:54:29;2.03;;;1.33;;
54197;SDS011;40105;52.366;17.000;2022-08-11T10:57:13;1.90;;;1.10;;
54197;SDS011;40105;52.366;17.000;2022-08-11T10:59:57;5.03;;;1.27;;
54197;SDS011;40105;52.366;17.000;2022-08-11T11:02:22;2.15;;;1.20;;
54197;SDS011;40105;52.366;17.000;2022-08-11T11:07:23;6.20;;;1.17;;
54197;SDS011;40105;52.366;17.000;2022-08-11T11:09:55;3.63;;;1.25;;
54197;SDS011;40105;52.366;17.000;2022-08-11T11:12:26;9.60;;;1.52;;
54197;SDS011;40105;52.366;17.000;2022-08-11T11:15:12;5.28;;;0.80;;
54197;SDS011;40105;52.366;17.000;2022-08-11T11:17:58;12.55;;;1.38;;
54197;SDS011;40105;52.366;17.000;2022-08-11T11:20:27;2.73;;;0.80;;
54197;SDS011;40105;52.366;17.000;2022-08-11T11:22:55;6.30;;;1.10;;
54197;SDS011;40105;52.366;17.000;2022-08-11T11:25:24;4.75;;;1.20;;
54197;SDS011;40105;52.366;17.000;2022-08-11T11:28:06;1.70;;;1.08;;
54197;SDS011;40105;52.366;17.000;2022-08-11T11:30:35;3.35;;;1.23;;
54197;SDS011;40105;52.366;17.000;2022-08-11T11:33:20;5.05;;;1.33;;
54197;SDS011;40105;52.366;17.000;2022-08-11T11:38:13;2.00;;;1.10;;
54197;SDS011;40105;52.366;17.000;2022-08-11T11:40:39;8.65;;;1.45;;
54197;SDS011;40105;52.366;17.000;2022-08-11T11:43:05;9.32;;;1.40;;
54197;SDS011;40105;52.366;17.000;2022-08-11T11:45:31;1.75;;;1.10;;
54197;SDS011;40105;52.366;17.000;2022-08-11T11:47:57;4.20;;;1.20;;
54197;SDS011;40105;52.366;17.000;2022-08-11T11:52:48;4.93;;;1.30;;
54197;SDS011;40105;52.366;17.000;2022-08-11T11:55:13;4.25;;;1.10;;
54197;SDS011;40105;52.366;17.000;2022-08-11T11:57:39;1.43;;;0.93;;
54197;SDS011;40105;52.366;17.000;2022-08-11T12:00:23;4.30;;;1.08;;
54197;SDS011;40105;52.366;17.000;2022-08-11T12:03:08;5.95;;;1.10;;
54197;SDS011;40105;52.366;17.000;2022-08-11T12:05:33;4.03;;;0.88;;
54197;SDS011;40105;52.366;17.000;2022-08-11T12:08:00;2.95;;;0.90;;
54197;SDS011;40105;52.366;17.000;2022-08-11T12:10:46;11.13;;;1.13;;
54197;SDS011;40105;52.366;17.000;2022-08-11T12:13:12;2.10;;;1.05;;
54197;SDS011;40105;52.366;17.000;2022-08-11T12:15:56;6.40;;;1.13;;
54197;SDS011;40105;52.366;17.000;2022-08-11T12:18:26;3.43;;;1.43;;
54197;SDS011;40105;52.366;17.000;2022-08-11T12:20:51;7.37;;;1.40;;
54197;SDS011;40105;52.366;17.000;2022-08-11T12:23:16;6.47;;;1.17;;
54197;SDS011;40105;52.366;17.000;2022-08-11T12:26:00;2.28;;;1.20;;
54197;SDS011;40105;52.366;17.000;2022-08-11T12:28:44;4.75;;;1.13;;
54197;SDS011;40105;52.366;17.000;2022-08-11T12:31:10;2.40;;;1.00;;
54197;SDS011;40105;52.366;17.000;2022-08-11T12:33:36;22.17;;;1.48;;
54197;SDS011;40105;52.366;17.000;2022-08-11T12:36:01;5.68;;;1.17;;
54197;SDS011;40105;52.366;17.000;2022-08-11T12:38:26;1.88;;;0.93;;
54197;SDS011;40105;52.366;17.000;2022-08-11T12:40:52;3.23;;;0.80;;
54197;SDS011;40105;52.366;17.000;2022-08-11T12:43:37;2.05;;;1.15;;
54197;SDS011;40105;52.366;17.000;2022-08-11T12:46:27;4.72;;;1.42;;
54197;SDS011;40105;52.366;17.000;2022-08-11T12:48:55;7.18;;;1.25;;
54197;SDS011;40105;52.366;17.000;2022-08-11T12:51:40;3.75;;;1.50;;
54197;SDS011;40105;52.366;17.000;2022-08-11T12:57:07;2.88;;;1.27;;
54197;SDS011;40105;52.366;17.000;2022-08-11T12:59:52;1.95;;;1.17;;
54197;SDS011;40105;52.366;17.000;2022-08-11T13:02:37;5.60;;;1.90;;
54197;SDS011;40105;52.366;17.000;2022-08-11T13:05:23;4.30;;;1.30;;
54197;SDS011;40105;52.366;17.000;2022-08-11T13:07:48;2.00;;;0.90;;
54197;SDS011;40105;52.366;17.000;2022-08-11T13:10:15;7.97;;;1.67;;
54197;SDS011;40105;52.366;17.000;2022-08-11T13:13:04;2.13;;;1.10;;
54197;SDS011;40105;52.366;17.000;2022-08-11T13:15:30;8.37;;;1.43;;
54197;SDS011;40105;52.366;17.000;2022-08-11T13:17:56;5.13;;;1.48;;
54197;SDS011;40105;52.366;17.000;2022-08-11T13:20:23;4.90;;;1.30;;
54197;SDS011;40105;52.366;17.000;2022-08-11T13:22:49;6.25;;;1.20;;
54197;SDS011;40105;52.366;17.000;2022-08-11T13:25:15;2.28;;;1.08;;
54197;SDS011;40105;52.366;17.000;2022-08-11T13:27:41;3.75;;;1.27;;
54197;SDS011;40105;52.366;17.000;2022-08-11T13:30:08;5.07;;;1.02;;
54197;SDS011;40105;52.366;17.000;2022-08-11T13:32:52;5.90;;;1.13;;
54197;SDS011;40105;52.366;17.000;2022-08-11T13:35:18;5.93;;;1.75;;
54197;SDS011;40105;52.366;17.000;2022-08-11T13:37:44;14.98;;;1.42;;
54197;SDS011;40105;52.366;17.000;2022-08-11T13:40:09;7.20;;;1.13;;
54197;SDS011;40105;52.366;17.000;2022-08-11T13:42:35;1.58;;;1.02;;
54197;SDS011;40105;52.366;17.000;2022-08-11T13:45:02;1.95;;;1.00;;
54197;SDS011;40105;52.366;17.000;2022-08-11T13:47:27;2.92;;;0.82;;
54197;SDS011;40105;52.366;17.000;2022-08-11T13:49:52;6.00;;;1.30;;
54197;SDS011;40105;52.366;17.000;2022-08-11T13:52:18;11.18;;;2.40;;
54197;SDS011;40105;52.366;17.000;2022-08-11T13:54:45;6.75;;;1.30;;
54197;SDS011;40105;52.366;17.000;2022-08-11T13:57:12;4.63;;;1.05;;
54197;SDS011;40105;52.366;17.000;2022-08-11T13:59:39;6.05;;;1.17;;
54197;SDS011;40105;52.366;17.000;2022-08-11T14:02:05;10.77;;;2.03;;
54197;SDS011;40105;52.366;17.000;2022-08-11T14:04:38;11.70;;;1.38;;
54197;SDS011;40105;52.366;17.000;2022-08-11T14:07:06;5.68;;;1.08;;
54197;SDS011;40105;52.366;17.000;2022-08-11T14:09:36;6.93;;;1.48;;
54197;SDS011;40105;52.366;17.000;2022-08-11T14:12:06;5.90;;;1.17;;
54197;SDS011;40105;52.366;17.000;2022-08-11T14:14:51;2.15;;;0.93;;
54197;SDS011;40105;52.366;17.000;2022-08-11T14:17:19;5.13;;;1.15;;
54197;SDS011;40105;52.366;17.000;2022-08-11T14:19:46;5.80;;;1.10;;
54197;SDS011;40105;52.366;17.000;2022-08-11T14:22:14;2.25;;;1.08;;
54197;SDS011;40105;52.366;17.000;2022-08-11T14:24:41;1.30;;;1.00;;
54197;SDS011;40105;52.366;17.000;2022-08-11T14:27:08;3.50;;;1.05;;
54197;SDS011;40105;52.366;17.000;2022-08-11T14:29:34;6.70;;;1.30;;
54197;SDS011;40105;52.366;17.000;2022-08-11T14:32:03;1.15;;;0.88;;
54197;SDS011;40105;52.366;17.000;2022-08-11T14:34:29;24.67;;;1.83;;
54197;SDS011;40105;52.366;17.000;2022-08-11T14:36:56;2.83;;;1.10;;
54197;SDS011;40105;52.366;17.000;2022-08-11T14:39:26;1.40;;;0.90;;
54197;SDS011;40105;52.366;17.000;2022-08-11T14:41:53;9.05;;;1.08;;
54197;SDS011;40105;52.366;17.000;2022-08-11T14:44:37;168.82;;;16.00;;
54197;SDS011;40105;52.366;17.000;2022-08-11T14:47:22;9.38;;;1.42;;
54197;SDS011;40105;52.366;17.000;2022-08-11T14:49:47;1.88;;;0.93;;
54197;SDS011;40105;52.366;17.000;2022-08-11T14:52:14;3.75;;;1.00;;
54197;SDS011;40105;52.366;17.000;2022-08-11T14:54:43;3.47;;;1.02;;
54197;SDS011;40105;52.366;17.000;2022-08-11T14:57:28;2.35;;;1.02;;
54197;SDS011;40105;52.366;17.000;2022-08-11T14:59:55;2.85;;;1.10;;
54197;SDS011;40105;52.366;17.000;2022-08-11T15:02:22;5.25;;;1.23;;
54197;SDS011;40105;52.366;17.000;2022-08-11T15:05:06;4.60;;;1.10;;
54197;SDS011;40105;52.366;17.000;2022-08-11T15:07:31;2.13;;;1.00;;
54197;SDS011;40105;52.366;17.000;2022-08-11T15:10:00;32.17;;;2.15;;
54197;SDS011;40105;52.366;17.000;2022-08-11T15:12:26;5.18;;;0.98;;
54197;SDS011;40105;52.366;17.000;2022-08-11T15:14:52;2.33;;;1.25;;
54197;SDS011;40105;52.366;17.000;2022-08-11T15:17:37;10.18;;;1.45;;
54197;SDS011;40105;52.366;17.000;2022-08-11T15:20:04;7.90;;;1.40;;
54197;SDS011;40105;52.366;17.000;2022-08-11T15:22:49;3.03;;;1.13;;
54197;SDS011;40105;52.366;17.000;2022-08-11T15:25:33;3.63;;;1.67;;
54197;SDS011;40105;52.366;17.000;2022-08-11T15:27:59;2.17;;;1.10;;
54197;SDS011;40105;52.366;17.000;2022-08-11T15:30:43;5.03;;;1.20;;
54197;SDS011;40105;52.366;17.000;2022-08-11T15:33:27;2.60;;;1.15;;
54197;SDS011;40105;52.366;17.000;2022-08-11T15:36:11;1.50;;;0.98;;
54197;SDS011;40105;52.366;17.000;2022-08-11T15:39:00;2.08;;;0.95;;
54197;SDS011;40105;52.366;17.000;2022-08-11T15:41:43;3.58;;;1.00;;
54197;SDS011;40105;52.366;17.000;2022-08-11T15:44:29;2.28;;;1.00;;
54197;SDS011;40105;52.366;17.000;2022-08-11T15:47:14;6.05;;;1.20;;
54197;SDS011;40105;52.366;17.000;2022-08-11T15:49:41;1.35;;;0.75;;
54197;SDS011;40105;52.366;17.000;2022-08-11T15:52:09;2.65;;;1.02;;
54197;SDS011;40105;52.366;17.000;2022-08-11T15:54:37;4.22;;;0.80;;
54197;SDS011;40105;52.366;17.000;2022-08-11T15:57:03;2.22;;;1.15;;
54197;SDS011;40105;52.366;17.000;2022-08-11T15:59:33;1.52;;;0.80;;
54197;SDS011;40105;52.366;17.000;2022-08-11T16:02:18;1.95;;;0.98;;
54197;SDS011;40105;52.366;17.000;2022-08-11T16:05:05;1.85;;;0.90;;
54197;SDS011;40105;52.366;17.000;2022-08-11T16:07:32;10.75;;;1.27;;
54197;SDS011;40105;52.366;17.000;2022-08-11T16:10:06;2.40;;;1.00;;
54197;SDS011;40105;52.366;17.000;2022-08-11T16:12:37;4.13;;;1.08;;
54197;SDS011;40105;52.366;17.000;2022-08-11T16:15:04;7.63;;;1.88;;
54197;SDS011;40105;52.366;17.000;2022-08-11T16:17:50;1.42;;;0.98;;
54197;SDS011;40105;52.366;17.000;2022-08-11T16:20:18;4.53;;;0.90;;
54197;SDS011;40105;52.366;17.000;2022-08-11T16:22:43;1.95;;;1.00;;
54197;SDS011;40105;52.366;17.000;2022-08-11T16:25:12;6.25;;;1.27;;
54197;SDS011;40105;52.366;17.000;2022-08-11T16:27:39;3.22;;;1.50;;
54197;SDS011;40105;52.366;17.000;2022-08-11T16:30:05;8.25;;;1.10;;
54197;SDS011;40105;52.366;17.000;2022-08-11T16:32:31;5.65;;;1.20;;
54197;SDS011;40105;52.366;17.000;2022-08-11T16:34:59;2.20;;;1.00;;
54197;SDS011;40105;52.366;17.000;2022-08-11T16:37:43;8.25;;;1.23;;
54197;SDS011;40105;52.366;17.000;2022-08-11T16:40:27;7.70;;;1.50;;
54197;SDS011;40105;52.366;17.000;2022-08-11T16:42:53;6.03;;;0.93;;
54197;SDS011;40105;52.366;17.000;2022-08-11T16:45:39;2.90;;;1.17;;
54197;SDS011;40105;52.366;17.000;2022-08-11T16:48:23;1.80;;;0.90;;
54197;SDS011;40105;52.366;17.000;2022-08-11T16:50:51;4.60;;;1.27;;
54197;SDS011;40105;52.366;17.000;2022-08-11T16:53:16;2.00;;;1.00;;
54197;SDS011;40105;52.366;17.000;2022-08-11T16:55:42;2.87;;;1.07;;
54197;SDS011;40105;52.366;17.000;2022-08-11T16:58:08;2.85;;;1.05;;
54197;SDS011;40105;52.366;17.000;2022-08-11T17:00:52;5.50;;;1.25;;
54197;SDS011;40105;52.366;17.000;2022-08-11T17:03:18;3.00;;;1.20;;
54197;SDS011;40105;52.366;17.000;2022-08-11T17:06:02;7.05;;;1.40;;
54197;SDS011;40105;52.366;17.000;2022-08-11T17:08:47;3.90;;;1.10;;
54197;SDS011;40105;52.366;17.000;2022-08-11T17:11:35;1.85;;;1.10;;
54197;SDS011;40105;52.366;17.000;2022-08-11T17:14:22;3.08;;;1.30;;
54197;SDS011;40105;52.366;17.000;2022-08-11T17:16:48;4.60;;;1.42;;
54197;SDS011;40105;52.366;17.000;2022-08-11T17:19:23;4.95;;;1.42;;
54197;SDS011;40105;52.366;17.000;2022-08-11T17:21:49;1.63;;;0.90;;
54197;SDS011;40105;52.366;17.000;2022-08-11T17:24:38;4.20;;;1.50;;
54197;SDS011;40105;52.366;17.000;2022-08-11T17:27:04;4.55;;;1.30;;
54197;SDS011;40105;52.366;17.000;2022-08-11T17:32:02;1.23;;;0.88;;
54197;SDS011;40105;52.366;17.000;2022-08-11T17:34:46;10.30;;;1.25;;
54197;SDS011;40105;52.366;17.000;2022-08-11T17:37:31;10.85;;;1.20;;
54197;SDS011;40105;52.366;17.000;2022-08-11T17:39:58;2.35;;;1.00;;
54197;SDS011;40105;52.366;17.000;2022-08-11T17:42:25;2.78;;;1.02;;
54197;SDS011;40105;52.366;17.000;2022-08-11T17:45:09;3.55;;;1.00;;
54197;SDS011;40105;52.366;17.000;2022-08-11T17:47:58;13.30;;;1.20;;
54197;SDS011;40105;52.366;17.000;2022-08-11T17:50:43;5.60;;;1.35;;
54197;SDS011;40105;52.366;17.000;2022-08-11T17:53:10;12.18;;;1.70;;
54197;SDS011;40105;52.366;17.000;2022-08-11T17:55:54;3.58;;;1.42;;
54197;SDS011;40105;52.366;17.000;2022-08-11T17:58:38;6.22;;;1.10;;
54197;SDS011;40105;52.366;17.000;2022-08-11T18:01:23;6.07;;;1.20;;
54197;SDS011;40105;52.366;17.000;2022-08-11T18:03:49;6.55;;;1.60;;
54197;SDS011;40105;52.366;17.000;2022-08-11T18:06:15;6.20;;;1.75;;
54197;SDS011;40105;52.366;17.000;2022-08-11T18:08:43;10.23;;;1.65;;
54197;SDS011;40105;52.366;17.000;2022-08-11T18:11:27;9.98;;;1.40;;
54197;SDS011;40105;52.366;17.000;2022-08-11T18:14:13;9.93;;;1.60;;
54197;SDS011;40105;52.366;17.000;2022-08-11T18:16:56;16.73;;;2.30;;
54197;SDS011;40105;52.366;17.000;2022-08-11T18:19:40;10.02;;;1.75;;
54197;SDS011;40105;52.366;17.000;2022-08-11T18:22:32;27.50;;;1.85;;
54197;SDS011;40105;52.366;17.000;2022-08-11T18:25:19;21.63;;;2.22;;
54197;SDS011;40105;52.366;17.000;2022-08-11T18:28:04;23.58;;;1.88;;
54197;SDS011;40105;52.366;17.000;2022-08-11T18:30:49;16.52;;;1.73;;
54197;SDS011;40105;52.366;17.000;2022-08-11T18:33:37;12.10;;;1.50;;
54197;SDS011;40105;52.366;17.000;2022-08-11T18:36:23;12.23;;;1.83;;